Latest Weather Observations for Barrow Island

IDW60801

Issued at 12:35 pm WST Saturday 2 August 2014 (issued every 30 minutes, with the page automatically refreshed every 10 minutes)

About weather observations | Map of weather stations | Latest weather observations for WA | Other Formats
Station Details ID: 005094 Name: BARROW ISLAND AIRPORT Lat: -20.88 Lon: 115.41 Height: 6.4 m
Data from the previous 72 hours. | See also: Recent months at Barrow Island
Date/Time
WST
Temp
°C
App
Temp
°C
Dew
Point
Rel
Hum
%
Delta-T
°C
Wind Press
QNH
hPa
Press
MSL
hPa
Rain
since 9 am
mm
Dir
 
Spd
km/h
Gust
km/h
Spd
kts
Gust
kts
02/12:30pm 24.4 22.0 15.3 57 5.5 ENE 22 28 12 15 1018.8 - 0.0
02/12:00pm 24.0 20.7 14.1 54 5.8 ENE 24 30 13 16 1019.1 1019.1 0.0
02/11:30am 24.3 20.5 14.7 55 5.7 ENE 28 32 15 17 1019.2 - 0.0
02/11:00am 23.8 22.1 16.3 63 4.6 ENE 20 24 11 13 1019.3 - 0.0
02/10:30am 23.7 23.2 17.0 66 4.1 ENE 15 19 8 10 1019.5 - 0.0
02/10:00am 23.3 22.6 16.4 65 4.2 ENE 15 19 8 10 1019.7 - 0.0
02/09:30am 23.0 21.3 15.8 64 4.3 E 19 20 10 11 1019.7 - 0.0
02/09:00am 22.6 20.6 15.4 64 4.3 E 20 24 11 13 1019.6 1019.6 0.2
02/08:30am 22.1 21.0 17.2 74 3.0 E 19 24 10 13 1019.3 - 0.2
02/08:00am 21.4 22.6 17.4 78 2.5 ENE 7 9 4 5 1018.8 - 0.2
02/07:30am 20.2 21.2 17.8 86 1.5 SE 9 13 5 7 1018.6 - 0.2
02/07:00am 17.5 18.1 15.7 89 1.1 ENE 7 9 4 5 1018.3 - 0.2
02/06:30am 17.4 18.6 15.0 86 1.4 ESE 2 7 1 4 1017.9 - 0.2
02/06:00am 19.0 19.9 16.6 86 1.4 ESE 7 9 4 5 1017.6 1017.6 0.0
02/05:30am 19.8 21.1 17.6 87 1.3 SE 7 11 4 6 1017.4 - 0.0
02/05:00am 19.9 20.5 17.7 87 1.4 SE 11 13 6 7 1017.1 - 0.0
02/04:30am 20.1 20.8 18.0 88 1.3 ESE 11 15 6 8 1017.2 - 0.0
02/04:00am 20.0 21.1 18.0 88 1.2 SE 9 13 5 7 1017.4 - 0.0
02/03:30am 20.2 20.2 18.1 88 1.3 SE 15 17 8 9 1017.7 - 0.0
02/03:00am 20.3 20.0 18.2 88 1.3 SE 17 19 9 10 1017.9 1017.9 0.0
02/02:30am 20.2 21.1 18.5 90 1.1 SE 11 13 6 7 1017.9 - 0.0
02/02:00am 19.4 20.9 17.7 90 1.0 S 6 7 3 4 1018.0 - 0.0
02/01:30am 18.2 19.1 16.2 88 1.2 SW 6 7 3 4 1018.1 - 0.0
02/01:00am 17.8 18.5 15.6 87 1.3 SW 6 7 3 4 1018.2 - 0.0
02/12:30am 17.8 17.9 15.4 86 1.4 SW 9 9 5 5 1018.3 - 0.0
02/12:00am 18.6 18.6 16.2 86 1.4 SW 11 11 6 6 1018.3 1018.3 0.0
 
Date/Time
WST
Temp
°C
App
Temp
°C
Dew
Point
Rel
Hum
%
Delta-T
°C
Wind Press
QNH
hPa
Press
MSL
hPa
Rain
since 9 am
mm
Dir
 
Spd
km/h
Gust
km/h
Spd
kts
Gust
kts
01/11:30pm 19.0 19.4 16.2 84 1.7 SW 9 11 5 6 1018.4 - 0.0
01/11:00pm 18.5 18.0 14.8 79 2.1 WSW 11 11 6 6 1018.4 - 0.0
01/10:30pm 19.0 18.7 14.5 75 2.6 WSW 9 9 5 5 1018.5 - 0.0
01/10:00pm 18.9 18.3 13.5 71 3.1 W 9 9 5 5 1018.4 - 0.0
01/09:30pm 19.0 18.9 13.2 69 3.3 W 6 7 3 4 1018.4 - 0.0
01/09:00pm 18.2 17.6 12.4 69 3.2 WNW 7 9 4 5 1018.3 1018.3 0.0
01/08:30pm 19.3 18.3 13.5 69 3.3 NNW 11 13 6 7 1018.2 - 0.0
01/08:00pm 20.3 19.8 13.7 66 3.8 N 9 9 5 5 1017.9 - 0.0
01/07:30pm 20.2 19.4 12.9 63 4.1 N 9 9 5 5 1017.7 - 0.0
01/07:00pm 20.8 19.3 13.0 61 4.4 NNE 13 13 7 7 1017.4 - 0.0
01/06:30pm 21.5 19.2 12.9 58 4.9 NNE 17 19 9 10 1017.2 - 0.0
01/06:00pm 23.1 22.2 14.9 60 4.9 NNE 13 15 7 8 1016.9 1016.9 0.0
01/05:30pm 24.5 21.8 13.4 50 6.5 NNE 20 24 11 13 1016.6 - 0.0
01/05:00pm 25.2 21.4 12.4 45 7.4 NE 24 28 13 15 1016.5 - 0.0
01/04:30pm 25.8 21.0 10.4 38 8.6 NE 26 28 14 15 1016.5 - 0.0
01/04:00pm 26.2 21.7 11.5 40 8.4 NE 26 32 14 17 1016.3 - 0.0
01/03:30pm 26.1 22.4 11.4 39 8.3 NE 22 26 12 14 1016.3 - 0.0
01/03:00pm 25.3 21.6 11.5 42 7.8 ENE 22 28 12 15 1016.2 1016.2 0.0
01/02:30pm 25.3 22.6 13.5 48 6.9 ENE 20 26 11 14 1016.3 - 0.0
01/02:00pm 25.3 23.1 15.0 53 6.2 ENE 20 26 11 14 1016.5 - 0.0
01/01:30pm 25.2 23.2 15.5 55 5.9 ENE 20 24 11 13 1016.8 - 0.0
01/01:00pm 25.0 23.4 15.9 57 5.5 ENE 19 22 10 12 1016.9 - 0.0
01/12:30pm 25.6 22.3 12.8 45 7.4 ENE 22 24 12 13 1017.2 - 0.0
01/12:00pm 25.8 23.2 13.3 46 7.3 ENE 19 20 10 11 1017.4 1017.4 0.0
01/11:30am 25.8 23.3 12.3 43 7.8 ENE 17 19 9 10 1017.8 - 0.0
01/11:00am 25.1 24.2 14.8 52 6.2 ENE 13 15 7 8 1018.2 - 0.0
01/10:30am 24.2 23.8 15.1 56 5.4 ENE 11 13 6 7 1018.5 - 0.0
01/10:00am 23.6 23.9 16.1 62 4.6 ENE 9 11 5 6 1018.6 - 0.0
01/09:30am 23.2 21.7 16.3 65 4.2 E 19 20 10 11 1018.6 - 0.0
01/09:00am 22.6 21.5 17.3 72 3.3 E 19 22 10 12 1018.4 1018.4 0.0
01/08:30am 21.3 21.3 15.2 68 3.6 NE 9 11 5 6 1017.9 - 0.0
01/08:00am 20.9 21.3 14.8 68 3.6 NNE 6 9 3 5 1017.5 - 0.0
01/07:30am 19.7 20.9 13.9 69 3.3 CALM 0 0 0 0 1017.1 - 0.0
01/07:00am 17.0 16.6 12.3 74 2.6 NNE 6 13 3 7 1017.0 - 0.0
01/06:30am 17.7 16.8 12.6 72 2.8 NE 9 11 5 6 1016.7 - 0.0
01/06:00am 17.2 16.7 13.7 80 2.0 N 9 11 5 6 1016.2 1016.2 0.0
01/05:30am 18.2 18.2 15.1 82 1.8 NNE 9 9 5 5 1016.0 - 0.0
01/05:00am 17.4 16.1 14.9 85 1.4 N 15 17 8 9 1015.9 - 0.0
01/04:30am 18.0 18.1 15.6 86 1.4 N 9 13 5 7 1015.9 - 0.0
01/04:00am 17.8 18.2 15.2 85 1.5 NE 7 13 4 7 1016.0 - 0.0
01/03:30am 18.8 20.8 16.0 84 1.7 CALM 0 0 0 0 1016.1 - 0.0
01/03:00am 20.6 22.1 18.0 85 1.6 SE 7 11 4 6 1016.3 1016.3 0.0
01/02:30am 20.9 22.4 18.1 84 1.7 S 7 11 4 6 1016.3 - 0.0
01/02:00am 19.7 20.4 16.0 79 2.2 S 7 9 4 5 1016.6 - 0.0
01/01:30am 18.6 18.8 14.1 75 2.6 S 6 7 3 4 1016.6 - 0.0
01/01:00am 19.2 20.0 14.7 75 2.6 S 4 6 2 3 1016.9 - 0.0
01/12:30am 21.1 21.8 17.1 78 2.4 S 9 11 5 6 1017.1 - 0.0
01/12:00am 21.1 21.6 16.5 75 2.8 S 9 13 5 7 1017.2 1017.2 0.0
 
Date/Time
WST
Temp
°C
App
Temp
°C
Dew
Point
Rel
Hum
%
Delta-T
°C
Wind Press
QNH
hPa
Press
MSL
hPa
Rain
since 9 am
mm
Dir
 
Spd
km/h
Gust
km/h
Spd
kts
Gust
kts
31/11:30pm 20.0 21.2 13.7 67 3.6 CALM 0 0 0 0 1017.3 - 0.0
31/11:00pm 19.5 18.9 11.8 61 4.3 N 6 9 3 5 1017.7 - 0.0
31/10:30pm 20.4 18.9 10.5 53 5.4 WNW 9 13 5 7 1017.5 - 0.0
31/10:00pm 20.5 18.6 11.7 57 4.9 N 13 17 7 9 1017.4 - 0.0
31/09:30pm 20.2 17.5 10.3 53 5.3 N 15 20 8 11 1017.2 - 0.0
31/09:00pm 20.8 18.6 9.4 48 6.1 N 11 15 6 8 1017.1 1017.1 0.0
31/08:30pm 20.8 20.0 12.8 60 4.5 N 9 11 5 6 1016.9 - 0.0
31/08:00pm 21.9 20.6 14.8 64 4.2 W 15 17 8 9 1016.7 - 0.0
31/07:30pm 22.0 19.4 12.0 53 5.6 W 17 19 9 10 1016.3 - 0.0
31/07:00pm 22.1 19.1 7.9 40 7.4 WNW 13 15 7 8 1016.1 - 0.0
31/06:30pm 23.6 20.1 5.5 31 9.1 WNW 13 15 7 8 1016.0 - 0.0
31/06:00pm 24.6 21.1 5.4 29 9.7 W 13 13 7 7 1015.8 1015.8 0.0
31/05:30pm 27.6 24.4 5.2 24 11.5 WSW 11 11 6 6 1015.8 - 0.0
31/05:00pm 27.9 25.2 2.9 20 12.4 WSW 6 9 3 5 1015.7 - 0.0
31/04:30pm 25.9 25.5 12.4 43 7.8 SE 6 9 3 5 1015.9 - 0.0
31/04:00pm 26.4 24.6 10.9 38 8.7 ENE 11 13 6 7 1015.7 - 0.0
31/03:30pm 25.7 24.9 16.0 55 5.9 ENE 15 17 8 9 1015.9 - 0.0
31/03:00pm 25.7 25.2 16.0 55 5.9 ENE 13 15 7 8 1016.0 1016.0 0.0
31/02:30pm 24.4 24.7 17.1 63 4.5 ENE 11 13 6 7 1016.3 - 0.0
31/02:00pm 24.8 25.0 15.7 57 5.5 ENE 9 11 5 6 1016.6 - 0.0
31/01:30pm 24.4 24.8 15.3 57 5.5 ENE 7 9 4 5 1017.0 - 0.0
31/01:00pm 24.5 24.9 15.4 57 5.5 E 7 9 4 5 1017.3 - 0.0
31/12:30pm 25.1 25.4 15.1 53 6.0 E 7 9 4 5 1017.5 - 0.0
31/12:00pm 24.6 25.2 15.8 58 5.3 ESE 7 9 4 5 1017.9 1017.9 0.0
31/11:30am 23.2 22.9 15.5 62 4.6 ESE 11 13 6 7 1018.3 - 0.0
31/11:00am 24.0 24.4 16.3 62 4.7 ESE 9 11 5 6 1018.4 - 0.0
31/10:30am 23.1 23.2 15.4 62 4.6 SE 9 11 5 6 1018.8 - 0.0
31/10:00am 23.5 23.5 15.3 60 4.9 SE 9 13 5 7 1018.9 - 0.0
31/09:30am 22.9 23.1 15.7 64 4.3 SE 9 13 5 7 1018.7 - 0.0
31/09:00am 22.2 22.0 15.8 67 3.8 SSE 11 15 6 8 1018.5 1018.5 0.0
31/08:30am 21.9 22.3 16.2 70 3.4 SE 9 11 5 6 1018.5 - 0.0
31/08:00am 21.4 21.8 16.4 73 3.0 SE 9 11 5 6 1018.4 - 0.0
31/07:30am 21.2 21.3 16.6 75 2.8 SSE 11 13 6 7 1018.1 - 0.0
31/07:00am 21.0 21.4 16.2 74 2.9 SSE 9 11 5 6 1017.9 - 0.0
31/06:30am 21.0 20.2 16.0 73 3.0 SE 15 17 8 9 1017.6 - 0.0
31/06:00am 21.2 20.4 16.0 72 3.1 SE 15 19 8 10 1017.4 1017.4 0.0
31/05:30am 21.2 20.0 16.0 72 3.1 SE 17 19 9 10 1017.3 - 0.0
31/05:00am 21.1 19.5 15.9 72 3.1 SSE 19 22 10 12 1017.2 - 0.0
31/04:30am 21.1 19.4 16.3 74 2.9 SSE 20 26 11 14 1017.0 - 0.0
31/04:00am 20.9 20.1 17.1 79 2.3 SE 17 19 9 10 1016.9 - 0.0
31/03:30am 20.9 20.5 17.1 79 2.3 S 15 28 8 15 1017.0 - 0.0
31/03:00am 20.8 21.4 17.6 82 2.0 SSE 11 17 6 9 1016.8 1016.8 0.0
31/02:30am 21.4 21.7 17.0 76 2.7 SE 11 19 6 10 1016.9 - 0.0
31/02:00am 22.2 22.0 15.8 67 3.8 SSE 11 19 6 10 1016.9 - 0.0
31/01:30am 20.9 21.9 16.9 78 2.4 N 7 11 4 6 1016.9 - 0.0
31/01:00am 21.7 22.5 17.3 76 2.7 NE 9 13 5 7 1017.1 - 0.0
31/12:30am 22.3 20.8 15.4 65 4.1 NNE 17 24 9 13 1017.2 - 0.0
31/12:00am 20.5 18.6 14.2 67 3.6 N 17 19 9 10 1017.2 1017.2 0.0
 
Date/Time
WST
Temp
°C
App
Temp
°C
Dew
Point
Rel
Hum
%
Delta-T
°C
Wind Press
QNH
hPa
Press
MSL
hPa
Rain
since 9 am
mm
Dir
 
Spd
km/h
Gust
km/h
Spd
kts
Gust
kts
30/11:30pm 20.0 18.3 13.7 67 3.6 N 15 19 8 10 1017.3 - 0.0
30/11:00pm 20.9 18.4 13.4 62 4.3 N 19 22 10 12 1017.4 - 0.0
30/10:30pm 20.8 18.7 14.7 68 3.6 N 19 22 10 12 1017.5 - 0.0
30/10:00pm 21.3 18.8 14.0 63 4.2 N 20 24 11 13 1017.3 - 0.0
30/09:30pm 20.7 18.1 13.9 65 3.9 N 20 22 11 12 1017.5 - 0.0
30/09:00pm 20.4 17.7 13.4 64 4.0 N 20 22 11 12 1017.5 1017.5 0.0
30/08:30pm 20.9 18.2 13.6 63 4.2 N 20 22 11 12 1017.4 - 0.0
30/08:00pm 20.7 18.1 13.9 65 3.9 N 20 22 11 12 1017.3 - 0.0
30/07:30pm 21.0 18.4 13.7 63 4.2 N 20 22 11 12 1017.0 - 0.0
30/07:00pm 21.4 18.8 13.8 62 4.4 N 20 22 11 12 1016.8 - 0.0
30/06:30pm 21.9 19.3 14.8 64 4.2 NNE 22 24 12 13 1016.6 - 0.0
30/06:00pm 22.7 20.6 15.3 63 4.4 NNE 20 24 11 13 1016.6 1016.6 0.0
30/05:30pm 23.8 21.2 15.0 57 5.3 NNE 22 24 12 13 1016.6 - 0.0
30/05:00pm 24.4 21.5 15.1 56 5.6 NNE 24 30 13 16 1016.7 - 0.0
30/04:30pm 25.1 21.5 14.3 51 6.4 NNE 26 32 14 17 1016.6 - 0.0
30/04:00pm 25.1 21.8 13.9 49 6.6 NNE 24 30 13 16 1016.6 - 0.0
30/03:30pm 24.9 22.1 14.4 52 6.2 NE 22 28 12 15 1016.6 - 0.0
30/03:00pm 24.8 21.4 13.7 50 6.5 NE 24 28 13 15 1016.7 1016.7 0.0
30/02:30pm 24.7 22.3 14.5 53 6.1 NE 20 22 11 12 1016.9 - 0.0
30/02:00pm 25.1 23.4 14.8 52 6.2 NE 17 20 9 11 1017.1 - 0.0
30/01:30pm 24.7 23.8 15.9 58 5.3 ENE 15 15 8 8 1017.2 - 0.0
30/01:00pm 25.9 24.2 13.7 47 7.2 ENE 15 17 8 9 1017.6 - 0.0

Other Formats:

Comma delimited format used in spreadsheet applications
http://www.bom.gov.au/fwo/IDW60801/IDW60801.95304.axf

JavaScript Object Notation format (JSON) in row-major order
http://www.bom.gov.au/fwo/IDW60801/IDW60801.95304.json